Station info - map view · info · telemetry · weather · raw · status · beacons · messages · bulletins · browse · moving · my account
Callsign, ship name or locator: Clear       
It is possible to search using wildcards (*?) after a prefix. Example: OH*
APRS station IW2MYG-9 - show graphs
Map loading...
Comment: Op. Andrea
Mic-E message: En route
Location: 45°52.58' N 10°10.70' E - locator JN55CV10JH - show map - static map
5.0 miles Northeast bearing 50° from Costa Volpino, Provincia di Bergamo, Lombardy, Italy [?]
5.7 miles Northeast bearing 37° from Pisogne, Provincia di Brescia, Lombardy, Italy
50.0 miles Northwest bearing 308° from Verona, Provincia di Verona, Veneto, Italy
55.5 miles Northeast bearing 59° from Milan, Province of Milan, Lombardy, Italy
Last position: 2017-04-26 12:36:38 EDT (1d 8h3m ago)
2017-04-26 18:36:38 CEST local time at Costa Volpino, Italy [?]
Altitude: 735 ft
Course: 125°
Speed: 9 MPH
Device: Yaesu: FTM-350 (rig)
Last path: IW2MYG-9>TU5R58 via WIDE1-1,qAR,IR2DF (good)
Positions stored: 76264
Packet rate: 55 seconds between packets on average during 2768 seconds.
Other SSIDs: IW2MYG IW2MYG-1 IW2MYG-11 IW2MYG-7
Stations near current position of IW2MYG-9 - show more
callsign distance last heard - EDT      callsign distance last heard - EDT
IW2MYG-7166.2 yards 137°2017-04-07 16:32:48 IW2MYG-1173.6 yards 126°2017-04-25 14:39:38
IQ2VC0.4 miles 67°2017-04-27 20:17:44 IW2HBC0.4 miles 316°2017-04-25 17:08:55
I2NCE0.7 miles 200°2017-04-27 20:39:13 I2NCE-50.7 miles 198°2017-04-08 15:35:35
IZ2PAG-20.7 miles 115°2017-04-06 17:19:55 IU2DUW-51.4 miles 316°2017-04-22 09:02:03
IW2NWR-72.0 miles 312°2017-04-11 19:54:10 IU2HOU-72.3 miles 242°2017-03-30 17:46:05
IK2SAR-52.5 miles 50°2017-04-24 11:38:51 IZ2QDG-72.7 miles 209°2017-04-27 08:56:02
IZ2QDG-12.7 miles 210°2017-04-27 20:31:25 IW2MUC2.9 miles 40°2017-04-23 14:08:47
IK2IKW-53.9 miles 219°2017-04-27 01:45:50 IU2FZW-104.5 miles 228°2017-04-27 09:19:15
IZ2PAG-104.6 miles 224°2017-04-27 15:38:11 IZ2PAG-54.6 miles 224°2017-04-27 15:38:22
IZ2PAG-34.6 miles 224°2017-04-27 16:59:30 IW2LAO-134.7 miles 44°2017-04-27 20:39:22
Stations which heard IW2MYG-9 directly on radio –
callsign pkts first heard - EDT last heard longest (tx => rx) longest at - EDT
IR2AO 2 2017-04-01 16:14:27 2017-04-15 07:52:17 JN55CO > JN45PM 41.0 miles 264° 2017-04-01 16:14:27
IR2AL-11 1 2017-04-01 16:28:04 2017-04-01 16:28:04 JN55BQ > JN45OL 46.3 miles 252° 2017-04-01 16:28:04
IR2BQ 22 2017-04-01 11:30:17 2017-04-15 08:48:11 JN55AO > JN55CN 8.6 miles 124° 2017-04-15 08:48:11
IR2BZ 43 2017-04-01 11:14:30 2017-04-15 08:57:44 JN55CN > JN45XO 12.6 miles 279° 2017-04-01 13:53:00
IR2T 63 2017-04-01 16:42:29 2017-04-25 08:38:56 JN55BU > JN56EB 19.5 miles 34° 2017-04-01 16:42:29
IR2Y 1 2017-04-01 13:55:28 2017-04-01 13:55:28 JN55CN > JN55EK 13.4 miles 146° 2017-04-01 13:55:28
IW2EJH-11 29 2017-04-01 22:17:46 2017-04-26 12:35:25 JN55DX > JN55AT 15.2 miles 231° 2017-04-05 14:14:10
IR2S 12 2017-04-01 11:39:44 2017-04-01 16:18:00 JN55CN > JN55DQ 9.3 miles 25° 2017-04-01 11:39:44
IR2BW 27 2017-04-01 11:26:04 2017-04-15 08:42:20 JN55AP > JN55DN 10.3 miles 112° 2017-04-01 11:26:04
IR2DF 167 2017-04-01 10:40:49 2017-04-26 12:36:38 JN56EA > JN55AS 24.0 miles 222° 2017-04-02 12:44:45
IQ2CY 4 2017-04-01 11:08:00 2017-04-01 16:35:45 JN55BS > JN55AD 42.9 miles 185° 2017-04-01 11:08:00
IZ2UQD-11 70 2017-04-01 10:43:13 2017-04-26 12:35:37 JN55BT > JN55DW 12.1 miles 56° 2017-04-26 11:54:33
IR2DG 70 2017-04-01 22:36:58 2017-04-02 12:37:38 JN56DC > JN56FF 13.2 miles 38° 2017-04-02 12:37:38
IW2NSB 3 2017-04-05 11:42:56 2017-04-05 11:55:13 JN55CV > JN45XV 12.4 miles 268° 2017-04-05 11:55:13
IQ2UL 6 2017-04-01 22:38:45 2017-04-02 12:34:53 JN56ED > JN46WE 21.8 miles 276° 2017-04-02 12:30:13
IR2BY 39 2017-04-01 10:51:28 2017-04-15 09:10:17 JN55BT > JN55BQ 8.6 miles 190° 2017-04-01 16:40:30
LOVERE 123 2017-04-01 10:40:29 2017-04-26 12:35:14 JN56EA > JN55AT 19.9 miles 220° 2017-04-02 12:42:37
IR2UCL 12 2017-04-01 10:50:50 2017-04-01 16:40:29 JN55CN > JN45UP 26.2 miles 284° 2017-04-01 11:43:11
IU2GOH 27 2017-04-01 11:26:03 2017-04-15 08:39:28 JN55AP > JN55BL 11.3 miles 167° 2017-04-01 11:26:03

Only position packets which were originated by the station are shown here. The range statistics show some extra long hops, because some digipeaters do not correctly add themselves to the digipeater path. Please check the raw packets.
About this site
This page shows real-time information collected from the Automatic Position Reporting System Internet network (APRS-IS). APRS is used by amateur (ham) radio operators to transmit real-time position information, weather data, telemetry and messages over the radio. A vehicle equipped with a GPS receiver, a VHF transmitter or HF transceiver and a small computer device called a tracker transmits it's location, speed and course in a small data packet, which is then received by a nearby iGate receiving site which forwards the packet on the Internet. Systems connected to the Internet can send information on the APRS-IS without a radio transmitter, or collect and display information transmitted anywhere in the world.
FAQ · Blog · Discussion group · Linking to aprs.fi · AIS sites · Service status · Database statistics · Advertising on aprs.fi · Technical details · API · Change log · Planned changes · Credits and thanks · Terms Of Service · iPhone/iPad APRS